Time;durP1;ratioP1;P1;durP2;ratioP2;P2;SDS_P1;SDS_P2;PMS_P1;PMS_P2;Temp;Humidity;BMP_temperature;BMP_pressure;BME280_temperature;BME280_humidity;BME280_pressure;Samples;Min_cycle;Max_cycle;Signal;HPM_P1;HPM_P2
2022/10/05 00:01:58;;;;;;;;;;;9.30;99.90;;;;;;5002066;28;20116;-77
2022/10/05 00:04:25;;;;;;;;;;;9.30;99.90;;;;;;5002444;28;19916;-78
2022/10/05 00:07:06;;;;;;;;;;;9.30;99.90;;;;;;5002039;28;19913;-78
2022/10/05 00:09:32;;;;;;;;;;;9.30;99.90;;;;;;5002090;28;19921;-78
2022/10/05 00:11:57;;;;;;;;;;;9.30;99.90;;;;;;5002046;28;20115;-78
2022/10/05 00:14:31;;;;;;;;;;;9.30;99.90;;;;;;5001872;28;20243;-78
2022/10/05 00:16:57;;;;;;;;;;;9.30;99.90;;;;;;5001421;28;20223;-78
2022/10/05 00:19:43;;;;;;;;;;;9.30;99.90;;;;;;5001807;28;19910;-78
2022/10/05 00:22:08;;;;;;;;;;;9.20;99.90;;;;;;5017746;28;20173;-78
2022/10/05 00:24:34;;;;;;;;;;;9.30;99.90;;;;;;5002798;28;19918;-78
2022/10/05 00:27:00;;;;;;;;;;;9.20;99.90;;;;;;5004485;28;19909;-78
2022/10/05 00:29:26;;;;;;;;;;;9.30;99.90;;;;;;5005661;28;20120;-78
2022/10/05 00:31:52;;;;;;;;;;;9.20;99.90;;;;;;5005589;28;19910;-78
2022/10/05 00:34:18;;;;;;;;;;;9.20;99.90;;;;;;4989512;28;19909;-78
2022/10/05 00:36:43;;;;;;;;;;;9.10;99.90;;;;;;5004908;28;19953;-78
2022/10/05 00:39:09;;;;;;;;;;;9.00;99.90;;;;;;5005512;28;19918;-77
2022/10/05 00:41:51;;;;;;;;;;;9.00;99.90;;;;;;5005374;28;19918;-77
2022/10/05 00:44:31;;;;;;;;;;;9.00;99.90;;;;;;5005440;28;19984;-77
2022/10/05 00:47:42;;;;;;;;;;;9.00;99.90;;;;;;5005018;28;19945;-78
2022/10/05 00:50:28;;;;;;;;;;;9.10;99.90;;;;;;4985245;28;19982;-78
2022/10/05 00:53:12;;;;;;;;;;;9.00;99.90;;;;;;4985785;28;19916;-78
2022/10/05 00:56:01;;;;;;;;;;;9.00;99.90;;;;;;4986824;28;19910;-77
2022/10/05 00:58:47;;;;;;;;;;;9.00;99.90;;;;;;4985380;28;19914;-78
2022/10/05 01:01:15;;;;;;;;;;;9.00;99.90;;;;;;4955767;28;19952;-78
2022/10/05 01:04:09;;;;;;;;;;;8.90;99.90;;;;;;4969764;28;19910;-78
2022/10/05 01:06:48;;;;;;;;;;;8.80;99.90;;;;;;4985981;28;19945;-78
2022/10/05 01:09:30;;;;;;;;;;;8.70;99.90;;;;;;4986676;28;19936;-77
2022/10/05 01:12:33;;;;;;;;;;;8.70;99.90;;;;;;4985559;28;19933;-77
2022/10/05 01:15:15;;;;;;;;;;;8.70;99.90;;;;;;4985105;28;19910;-77
2022/10/05 01:18:06;;;;;;;;;;;8.60;99.90;;;;;;4985125;28;19917;-77
2022/10/05 01:20:31;;;;;;;;;;;8.60;99.90;;;;;;4996801;28;19963;-78
2022/10/05 01:23:05;;;;;;;;;;;8.60;99.90;;;;;;5005734;28;20148;-78
2022/10/05 01:26:02;;;;;;;;;;;8.60;99.90;;;;;;5004464;28;20160;-78
2022/10/05 01:28:32;;;;;;;;;;;8.60;99.90;;;;;;5005792;28;20232;-78
2022/10/05 01:31:09;;;;;;;;;;;8.70;99.90;;;;;;5004403;28;20223;-78
2022/10/05 01:33:40;;;;;;;;;;;8.70;99.90;;;;;;5004360;28;19917;-78
2022/10/05 01:36:24;;;;;;;;;;;8.70;99.90;;;;;;5003775;28;20110;-78
2022/10/05 01:39:00;;;;;;;;;;;8.70;99.90;;;;;;5005486;28;20155;-77
2022/10/05 01:41:56;;;;;;;;;;;8.60;99.90;;;;;;5004304;28;19914;-77
2022/10/05 01:44:32;;;;;;;;;;;8.60;99.90;;;;;;5004266;28;19941;-77
2022/10/05 01:47:11;;;;;;;;;;;8.60;99.90;;;;;;5003903;28;20148;-77
2022/10/05 01:49:55;;;;;;;;;;;8.60;99.90;;;;;;5004071;28;19959;-76
2022/10/05 01:52:39;;;;;;;;;;;8.60;99.90;;;;;;5005232;28;19910;-78
2022/10/05 01:55:26;;;;;;;;;;;8.60;99.90;;;;;;5005041;28;19917;-77
2022/10/05 01:58:19;;;;;;;;;;;8.60;99.90;;;;;;5004899;28;20212;-77
2022/10/05 02:00:52;;;;;;;;;;;8.60;99.90;;;;;;5003937;28;19918;-77
2022/10/05 02:03:23;;;;;;;;;;;8.50;99.90;;;;;;5003912;28;19909;-77
2022/10/05 02:05:55;;;;;;;;;;;8.50;99.90;;;;;;4987277;28;19985;-77
2022/10/05 02:08:42;;;;;;;;;;;8.60;99.90;;;;;;5003574;28;19920;-77
2022/10/05 02:11:09;;;;;;;;;;;8.50;99.90;;;;;;5003771;28;19910;-77
2022/10/05 02:13:39;;;;;;;;;;;8.50;99.90;;;;;;5003638;28;20232;-76
2022/10/05 02:16:13;;;;;;;;;;;8.40;99.90;;;;;;5003430;28;19955;-77
2022/10/05 02:18:42;;;;;;;;;;;8.40;99.90;;;;;;5004681;28;19917;-77
2022/10/05 02:21:08;;;;;;;;;;;8.30;99.90;;;;;;5002811;28;19916;-76
2022/10/05 02:23:35;;;;;;;;;;;8.30;99.90;;;;;;5003524;28;19918;-77
2022/10/05 02:26:01;;;;;;;;;;;8.30;99.90;;;;;;5003153;28;19910;-77
2022/10/05 02:28:51;;;;;;;;;;;8.20;99.90;;;;;;5003313;28;20008;-77
2022/10/05 02:31:20;;;;;;;;;;;8.20;99.90;;;;;;4998393;28;19910;-77
2022/10/05 02:33:46;;;;;;;;;;;8.20;99.90;;;;;;5003335;28;19910;-77
2022/10/05 02:36:14;;;;;;;;;;;8.10;99.90;;;;;;5002607;28;19917;-77
2022/10/05 02:39:04;;;;;;;;;;;8.20;99.90;;;;;;5004353;28;19910;-77
2022/10/05 02:41:33;;;;;;;;;;;8.20;99.90;;;;;;5004290;28;20139;-77
2022/10/05 02:44:36;;;;;;;;;;;8.20;99.90;;;;;;5003010;28;19914;-77
2022/10/05 02:47:48;;;;;;;;;;;8.20;99.90;;;;;;5002813;28;19910;-77
2022/10/05 02:50:17;;;;;;;;;;;8.30;99.90;;;;;;4995404;28;20145;-77
2022/10/05 02:52:52;;;;;;;;;;;8.30;99.90;;;;;;5002863;28;20275;-77
2022/10/05 02:55:43;;;;;;;;;;;8.30;99.90;;;;;;4986551;28;19910;-77
2022/10/05 02:58:18;;;;;;;;;;;8.30;99.90;;;;;;5002624;28;20385;-77
2022/10/05 03:00:57;;;;;;;;;;;8.20;99.90;;;;;;5003441;28;20108;-77
2022/10/05 03:03:25;;;;;;;;;;;8.10;99.90;;;;;;5002745;28;19918;-77
2022/10/05 03:05:59;;;;;;;;;;;8.10;99.90;;;;;;5003439;28;20202;-77
2022/10/05 03:08:39;;;;;;;;;;;8.10;99.90;;;;;;5002537;28;19921;-77
2022/10/05 03:11:28;;;;;;;;;;;8.10;99.90;;;;;;5002759;28;20258;-76
2022/10/05 03:14:13;;;;;;;;;;;8.10;99.90;;;;;;5018538;28;20205;-76
2022/10/05 03:16:57;;;;;;;;;;;8.00;99.90;;;;;;5002277;28;20132;-77
2022/10/05 03:19:41;;;;;;;;;;;8.00;99.90;;;;;;5003734;28;19940;-76
2022/10/05 03:22:13;;;;;;;;;;;8.00;99.90;;;;;;5018616;28;19914;-77
2022/10/05 03:25:13;;;;;;;;;;;7.90;99.90;;;;;;5003549;28;19910;-77
2022/10/05 03:27:45;;;;;;;;;;;7.90;99.90;;;;;;5002354;28;19922;-77
2022/10/05 03:30:16;;;;;;;;;;;7.80;99.90;;;;;;5018680;28;19913;-77
2022/10/05 03:33:02;;;;;;;;;;;7.90;99.90;;;;;;5018754;28;20243;-77
2022/10/05 03:35:30;;;;;;;;;;;7.80;99.90;;;;;;4985793;28;20124;-77
2022/10/05 03:38:02;;;;;;;;;;;7.80;99.90;;;;;;5003073;28;19981;-77
2022/10/05 03:40:35;;;;;;;;;;;7.80;99.90;;;;;;5018563;28;20243;-77
2022/10/05 03:43:10;;;;;;;;;;;7.80;99.90;;;;;;5002201;28;20025;-77
2022/10/05 03:45:48;;;;;;;;;;;7.80;99.90;;;;;;4983621;28;19981;-77
2022/10/05 03:48:14;;;;;;;;;;;7.90;99.90;;;;;;4982568;28;20113;-76
2022/10/05 03:50:44;;;;;;;;;;;7.90;99.90;;;;;;4982585;28;19914;-76
2022/10/05 03:53:21;;;;;;;;;;;7.90;99.90;;;;;;4998957;28;20217;-77
2022/10/05 03:55:52;;;;;;;;;;;7.90;99.90;;;;;;4966525;28;19910;-77
2022/10/05 03:58:25;;;;;;;;;;;7.90;99.90;;;;;;4983472;28;19910;-77
2022/10/05 04:00:57;;;;;;;;;;;7.90;99.90;;;;;;4983842;28;19918;-77
2022/10/05 04:03:23;;;;;;;;;;;7.90;99.90;;;;;;5002991;28;19910;-77
2022/10/05 04:05:50;;;;;;;;;;;7.90;99.90;;;;;;4987201;28;19922;-77
2022/10/05 04:08:38;;;;;;;;;;;7.90;99.90;;;;;;4986136;28;19922;-77
2022/10/05 04:11:08;;;;;;;;;;;7.90;99.90;;;;;;5002777;28;20400;-77
2022/10/05 04:13:38;;;;;;;;;;;7.90;99.90;;;;;;4990091;28;20283;-77
2022/10/05 04:16:28;;;;;;;;;;;7.90;99.90;;;;;;5005989;28;19909;-77
2022/10/05 04:19:09;;;;;;;;;;;7.90;99.90;;;;;;4990016;28;19955;-77
2022/10/05 04:21:39;;;;;;;;;;;7.80;99.90;;;;;;5006978;28;19910;-77
2022/10/05 04:24:32;;;;;;;;;;;7.80;99.90;;;;;;5005853;28;19932;-77
2022/10/05 04:26:59;;;;;;;;;;;7.80;99.90;;;;;;5014329;28;19941;-77
2022/10/05 04:29:41;;;;;;;;;;;7.80;99.90;;;;;;4989440;28;19913;-77
2022/10/05 04:32:34;;;;;;;;;;;7.80;99.90;;;;;;5005812;28;20255;-77
2022/10/05 04:35:10;;;;;;;;;;;7.80;99.90;;;;;;5005554;28;19918;-77
2022/10/05 04:37:41;;;;;;;;;;;7.80;99.90;;;;;;5005011;28;20163;-77
2022/10/05 04:40:33;;;;;;;;;;;7.70;99.90;;;;;;5006551;28;20148;-77
2022/10/05 04:43:19;;;;;;;;;;;7.70;99.90;;;;;;5008268;28;19920;-77
2022/10/05 04:46:06;;;;;;;;;;;7.70;99.90;;;;;;5021030;28;19953;-77
2022/10/05 04:48:47;;;;;;;;;;;7.60;99.90;;;;;;5021537;28;19956;-77
2022/10/05 04:51:32;;;;;;;;;;;7.60;99.90;;;;;;5006166;28;19909;-77
2022/10/05 04:54:33;;;;;;;;;;;7.60;99.90;;;;;;5006035;28;19910;-77
2022/10/05 04:57:01;;;;;;;;;;;7.70;99.90;;;;;;5020651;28;20184;-77
2022/10/05 04:59:33;;;;;;;;;;;7.70;99.90;;;;;;5005122;28;19913;-73
2022/10/05 05:02:32;;;;;;;;;;;7.60;99.90;;;;;;5006180;28;20328;-73
2022/10/05 05:05:07;;;;;;;;;;;7.60;99.90;;;;;;5006070;28;20190;-73
2022/10/05 05:07:50;;;;;;;;;;;7.50;99.90;;;;;;5020718;28;19917;-73
2022/10/05 05:10:34;;;;;;;;;;;7.50;99.90;;;;;;4988531;28;19921;-73
2022/10/05 05:13:21;;;;;;;;;;;7.50;99.90;;;;;;5005525;28;19917;-73
2022/10/05 05:15:56;;;;;;;;;;;7.50;99.90;;;;;;5004891;28;19988;-73
2022/10/05 05:18:33;;;;;;;;;;;7.60;99.90;;;;;;5005743;28;19916;-73
2022/10/05 05:21:06;;;;;;;;;;;7.60;99.90;;;;;;5005560;28;20259;-73
2022/10/05 05:23:41;;;;;;;;;;;7.50;99.90;;;;;;5004686;28;19932;-73
2022/10/05 05:26:14;;;;;;;;;;;7.50;99.90;;;;;;5004277;28;19910;-74
2022/10/05 05:28:42;;;;;;;;;;;7.50;99.90;;;;;;5004570;28;20124;-74
2022/10/05 05:31:29;;;;;;;;;;;7.60;99.90;;;;;;5004469;28;19973;-73
2022/10/05 05:34:01;;;;;;;;;;;7.50;99.90;;;;;;5004482;28;19959;-73
2022/10/05 05:36:39;;;;;;;;;;;7.60;99.90;;;;;;5003728;28;19917;-73
2022/10/05 05:39:24;;;;;;;;;;;7.60;99.90;;;;;;5004342;28;19918;-73
2022/10/05 05:41:56;;;;;;;;;;;7.60;99.90;;;;;;5022200;28;19980;-73
2022/10/05 05:44:31;;;;;;;;;;;7.70;99.90;;;;;;5014650;28;19980;-74
2022/10/05 05:47:11;;;;;;;;;;;7.70;99.90;;;;;;4987571;28;20180;-74
2022/10/05 05:49:45;;;;;;;;;;;7.60;99.90;;;;;;5004181;28;20093;-74
2022/10/05 05:52:23;;;;;;;;;;;7.60;99.90;;;;;;5003878;28;19917;-74
2022/10/05 05:54:53;;;;;;;;;;;7.70;99.90;;;;;;5003893;28;19917;-74
2022/10/05 05:57:28;;;;;;;;;;;7.70;99.90;;;;;;5003935;28;19922;-74
2022/10/05 06:00:04;;;;;;;;;;;7.70;99.90;;;;;;5003899;28;19918;-75
2022/10/05 06:03:06;;;;;;;;;;;7.80;99.90;;;;;;5003832;28;19910;-74
2022/10/05 06:05:46;;;;;;;;;;;7.80;99.90;;;;;;5003620;28;20108;-74
2022/10/05 06:08:34;;;;;;;;;;;7.90;99.90;;;;;;5003544;28;19913;-74
2022/10/05 06:11:17;;;;;;;;;;;7.90;99.90;;;;;;5006346;28;19933;-74
2022/10/05 06:13:43;;;;;;;;;;;7.90;99.90;;;;;;5003637;28;19976;-75
2022/10/05 06:16:33;;;;;;;;;;;7.90;99.90;;;;;;5003373;28;19914;-75
2022/10/05 06:19:14;;;;;;;;;;;7.90;99.90;;;;;;5003590;28;19984;-75
2022/10/05 06:21:51;;;;;;;;;;;8.00;99.90;;;;;;5003173;28;19977;-75
2022/10/05 06:24:19;;;;;;;;;;;8.00;99.90;;;;;;5002658;28;19910;-75
2022/10/05 06:27:10;;;;;;;;;;;8.00;99.90;;;;;;5003049;28;20145;-75
2022/10/05 06:29:56;;;;;;;;;;;8.10;99.90;;;;;;5004399;28;19913;-75
2022/10/05 06:32:34;;;;;;;;;;;8.20;99.90;;;;;;5004474;28;19910;-75
2022/10/05 06:35:03;;;;;;;;;;;8.20;99.90;;;;;;5003136;28;19918;-75
2022/10/05 06:37:38;;;;;;;;;;;8.30;99.90;;;;;;5002622;28;20486;-75
2022/10/05 06:40:12;;;;;;;;;;;8.30;99.90;;;;;;5004144;28;19924;-75
2022/10/05 06:42:53;;;;;;;;;;;8.40;99.90;;;;;;4993390;28;19960;-75
2022/10/05 06:45:44;;;;;;;;;;;8.40;99.90;;;;;;5003018;28;20140;-75
2022/10/05 06:48:18;;;;;;;;;;;8.50;99.90;;;;;;5002755;28;20036;-75
2022/10/05 06:51:13;;;;;;;;;;;8.60;99.90;;;;;;5003987;28;19922;-75
2022/10/05 06:53:43;;;;;;;;;;;8.60;99.90;;;;;;5003126;28;19988;-75
2022/10/05 06:56:24;;;;;;;;;;;8.70;99.90;;;;;;5003060;28;19913;-76
2022/10/05 06:59:05;;;;;;;;;;;8.80;99.90;;;;;;5002731;28;20136;-75
2022/10/05 07:01:36;;;;;;;;;;;8.90;99.90;;;;;;5002677;28;19910;-75
2022/10/05 07:04:37;;;;;;;;;;;8.90;99.90;;;;;;5002712;28;19909;-75
2022/10/05 07:07:09;;;;;;;;;;;9.00;99.90;;;;;;5000738;28;19914;-75
2022/10/05 07:09:56;;;;;;;;;;;9.00;99.90;;;;;;5003093;28;19989;-75
2022/10/05 07:12:40;;;;;;;;;;;9.00;99.90;;;;;;5003553;28;20167;-75
2022/10/05 07:15:29;;;;;;;;;;;9.10;99.90;;;;;;5001751;28;20821;-75
2022/10/05 07:18:19;;;;;;;;;;;9.10;99.90;;;;;;5003393;28;20377;-75
2022/10/05 07:21:01;;;;;;;;;;;9.20;99.90;;;;;;5002860;28;19933;-75
2022/10/05 07:23:55;;;;;;;;;;;9.30;99.90;;;;;;5002619;28;19910;-74
2022/10/05 07:26:26;;;;;;;;;;;9.40;99.90;;;;;;5018393;28;19916;-75
2022/10/05 07:29:26;;;;;;;;;;;9.50;99.90;;;;;;5003460;28;19917;-75
2022/10/05 07:31:59;;;;;;;;;;;9.60;99.90;;;;;;5002631;28;19910;-75
2022/10/05 07:34:44;;;;;;;;;;;9.70;99.90;;;;;;5002212;28;20145;-75
2022/10/05 07:40:27;;;;;;;;;;;9.90;99.90;;;;;;5002425;28;19961;-75
2022/10/05 07:43:13;;;;;;;;;;;10.00;99.90;;;;;;5002088;28;19909;-75
2022/10/05 07:46:03;;;;;;;;;;;10.10;99.90;;;;;;5002871;28;19918;-75
2022/10/05 07:48:42;;;;;;;;;;;10.20;99.90;;;;;;5002011;28;20116;-75
2022/10/05 07:51:19;;;;;;;;;;;10.30;99.90;;;;;;5002975;28;19917;-75
2022/10/05 07:53:50;;;;;;;;;;;10.50;99.90;;;;;;5003332;28;20204;-75
2022/10/05 07:56:22;;;;;;;;;;;10.60;99.90;;;;;;5001800;28;19910;-75
2022/10/05 07:58:51;;;;;;;;;;;10.60;99.90;;;;;;5002128;28;20398;-75
2022/10/05 08:01:52;;;;;;;;;;;10.70;99.90;;;;;;5002100;28;19944;-75
2022/10/05 08:04:20;;;;;;;;;;;10.80;99.90;;;;;;5001397;28;19916;-75
2022/10/05 08:06:55;;;;;;;;;;;10.90;99.90;;;;;;4985155;28;19914;-75
2022/10/05 08:09:41;;;;;;;;;;;10.90;99.90;;;;;;4985465;28;19914;-74
2022/10/05 08:12:32;;;;;;;;;;;10.90;99.90;;;;;;5001686;28;20228;-74
2022/10/05 08:15:00;;;;;;;;;;;11.10;99.90;;;;;;5002782;28;19909;-74
2022/10/05 08:17:37;;;;;;;;;;;11.20;99.90;;;;;;5001595;28;19984;-74
2022/10/05 08:20:18;;;;;;;;;;;11.30;99.90;;;;;;5001729;28;20201;-74
2022/10/05 08:22:46;;;;;;;;;;;11.40;99.90;;;;;;5001509;28;19910;-74
2022/10/05 08:25:21;;;;;;;;;;;11.50;99.90;;;;;;5001755;28;19909;-74
2022/10/05 08:27:49;;;;;;;;;;;11.60;99.90;;;;;;5001671;28;20144;-74
2022/10/05 08:30:15;;;;;;;;;;;11.70;99.90;;;;;;5002645;28;19914;-74
2022/10/05 08:33:09;;;;;;;;;;;11.70;99.90;;;;;;5001708;28;19925;-74
2022/10/05 08:35:42;;;;;;;;;;;11.80;99.90;;;;;;5001565;28;20271;-74
2022/10/05 08:38:15;;;;;;;;;;;11.90;99.90;;;;;;5001031;28;19992;-74
2022/10/05 08:40:53;;;;;;;;;;;12.00;99.90;;;;;;5001571;28;19969;-74
2022/10/05 08:43:19;;;;;;;;;;;12.00;99.90;;;;;;5002754;28;19918;-74
2022/10/05 08:45:54;;;;;;;;;;;12.10;99.90;;;;;;5002734;28;19917;-74
2022/10/05 08:48:22;;;;;;;;;;;12.20;99.90;;;;;;5004743;28;19934;-74
2022/10/05 08:50:51;;;;;;;;;;;12.30;99.90;;;;;;5006251;28;19909;-75
2022/10/05 08:53:30;;;;;;;;;;;12.50;99.90;;;;;;5006098;28;19916;-75
2022/10/05 08:56:22;;;;;;;;;;;12.70;99.90;;;;;;5005049;28;19972;-75
2022/10/05 08:58:52;;;;;;;;;;;12.70;99.90;;;;;;5005331;28;19917;-75
2022/10/05 09:01:53;;;;;;;;;;;12.80;99.90;;;;;;5006365;28;19917;-74
2022/10/05 09:04:21;;;;;;;;;;;12.90;99.90;;;;;;5005289;28;19909;-75
2022/10/05 09:07:05;;;;;;;;;;;13.00;99.90;;;;;;5004245;28;20025;-75
2022/10/05 09:09:57;;;;;;;;;;;13.10;99.90;;;;;;5005794;28;19925;-75
2022/10/05 09:12:44;;;;;;;;;;;13.30;99.90;;;;;;5007716;28;20108;-75
2022/10/05 09:15:25;;;;;;;;;;;13.30;99.90;;;;;;5005856;28;19910;-75
2022/10/05 09:18:15;;;;;;;;;;;13.40;99.90;;;;;;5005304;28;19914;-75
2022/10/05 09:20:40;;;;;;;;;;;13.40;99.90;;;;;;5005471;28;20181;-75
2022/10/05 09:23:33;;;;;;;;;;;13.60;99.90;;;;;;5005167;28;19909;-75
2022/10/05 09:26:11;;;;;;;;;;;13.60;99.90;;;;;;5003946;28;20311;-75
2022/10/05 09:28:56;;;;;;;;;;;13.70;99.90;;;;;;4997733;28;19918;-74
2022/10/05 09:31:40;;;;;;;;;;;13.90;99.90;;;;;;4985275;28;19917;-74
2022/10/05 09:34:14;;;;;;;;;;;14.00;99.90;;;;;;4986141;28;19945;-74
2022/10/05 09:37:18;;;;;;;;;;;14.00;99.90;;;;;;4999125;28;19932;-75
2022/10/05 09:40:18;;;;;;;;;;;14.10;99.90;;;;;;5005484;28;19928;-75
2022/10/05 09:43:02;;;;;;;;;;;14.20;99.90;;;;;;5005291;28;20416;-75
2022/10/05 09:45:28;;;;;;;;;;;14.40;99.90;;;;;;5005173;28;19910;-75
2022/10/05 09:47:58;;;;;;;;;;;14.50;99.90;;;;;;5004994;28;19952;-75
2022/10/05 09:50:49;;;;;;;;;;;14.70;99.90;;;;;;5004002;28;19968;-75
2022/10/05 09:53:39;;;;;;;;;;;14.80;99.90;;;;;;5003928;28;19988;-75
2022/10/05 09:56:34;;;;;;;;;;;15.00;99.90;;;;;;5020038;28;20029;-75
2022/10/05 09:59:19;;;;;;;;;;;15.10;99.90;;;;;;5003316;28;19937;-75
2022/10/05 10:01:45;;;;;;;;;;;15.30;99.90;;;;;;5001920;28;20228;-75
2022/10/05 10:04:33;;;;;;;;;;;15.40;99.90;;;;;;5004922;28;19941;-75
2022/10/05 10:07:13;;;;;;;;;;;15.60;99.90;;;;;;5003507;28;19920;-75
2022/10/05 10:09:57;;;;;;;;;;;15.70;99.90;;;;;;5003881;28;20216;-75
2022/10/05 10:12:50;;;;;;;;;;;15.90;99.90;;;;;;5004612;28;19910;-75
2022/10/05 10:15:57;;;;;;;;;;;16.00;99.90;;;;;;5004715;28;19917;-75
2022/10/05 10:19:14;;;;;;;;;;;16.20;99.90;;;;;;5019270;28;19910;-75
2022/10/05 10:21:54;;;;;;;;;;;16.40;99.90;;;;;;4994222;28;20224;-76
2022/10/05 10:24:58;;;;;;;;;;;16.70;99.90;;;;;;5000142;28;20008;-76
2022/10/05 10:27:38;;;;;;;;;;;16.90;99.90;;;;;;4985019;28;19917;-76
2022/10/05 10:30:40;;;;;;;;;;;17.10;99.90;;;;;;4985053;28;20005;-73
2022/10/05 10:33:14;;;;;;;;;;;17.30;99.90;;;;;;4984968;28;19960;-73
2022/10/05 10:36:01;;;;;;;;;;;17.60;99.90;;;;;;4984740;28;19916;-72
2022/10/05 10:38:43;;;;;;;;;;;17.80;99.90;;;;;;4983850;28;19910;-73
2022/10/05 10:41:34;;;;;;;;;;;18.00;99.90;;;;;;4999963;28;19918;-73
2022/10/05 10:44:12;;;;;;;;;;;18.10;99.90;;;;;;4983878;28;19934;-74
2022/10/05 10:47:07;;;;;;;;;;;18.30;99.90;;;;;;4984339;28;20223;-74
2022/10/05 10:49:45;;;;;;;;;;;18.40;99.90;;;;;;4986100;28;19918;-74
2022/10/05 10:52:47;;;;;;;;;;;18.60;99.90;;;;;;4983362;28;20217;-73
2022/10/05 10:55:25;;;;;;;;;;;18.90;99.90;;;;;;4983533;28;19945;-75
2022/10/05 10:57:56;;;;;;;;;;;19.20;99.90;;;;;;4984455;28;19910;-74
2022/10/05 11:00:26;;;;;;;;;;;19.40;99.90;;;;;;4999666;28;19917;-75
2022/10/05 11:03:04;;;;;;;;;;;19.50;99.90;;;;;;4983438;28;20086;-75
2022/10/05 11:05:46;;;;;;;;;;;19.70;99.90;;;;;;4983397;28;19920;-76
2022/10/05 11:08:40;;;;;;;;;;;19.90;99.90;;;;;;4982970;28;19910;-76
2022/10/05 11:11:35;;;;;;;;;;;20.20;99.90;;;;;;4984148;28;19910;-75
2022/10/05 11:14:03;;;;;;;;;;;20.60;99.90;;;;;;4984669;28;19917;-75
2022/10/05 11:16:50;;;;;;;;;;;21.00;99.90;;;;;;4984008;28;20012;-74
2022/10/05 11:19:28;;;;;;;;;;;21.20;99.90;;;;;;4984526;28;19918;-73
2022/10/05 11:22:06;;;;;;;;;;;21.30;99.90;;;;;;5000828;28;20144;-73
2022/10/05 11:25:00;;;;;;;;;;;21.50;99.90;;;;;;5002762;28;19916;-75
2022/10/05 11:27:50;;;;;;;;;;;21.60;99.90;;;;;;5002327;28;19936;-75
2022/10/05 11:30:21;;;;;;;;;;;21.80;99.90;;;;;;5003532;28;19914;-75
2022/10/05 11:33:11;;;;;;;;;;;21.90;99.90;;;;;;5002393;28;20116;-74
2022/10/05 11:35:46;;;;;;;;;;;22.00;99.90;;;;;;5002325;28;20172;-75
2022/10/05 11:38:20;;;;;;;;;;;22.20;99.90;;;;;;5003181;28;19996;-75
2022/10/05 11:41:10;;;;;;;;;;;22.30;99.90;;;;;;5003206;28;19945;-75
2022/10/05 11:44:06;;;;;;;;;;;22.60;99.90;;;;;;5003515;28;19910;-75
2022/10/05 11:46:53;;;;;;;;;;;22.90;99.90;;;;;;5002996;28;19910;-75
2022/10/05 11:49:33;;;;;;;;;;;23.40;99.90;;;;;;5000508;28;19922;-75
2022/10/05 11:52:02;;;;;;;;;;;23.60;99.90;;;;;;4994236;28;19953;-75
2022/10/05 11:54:36;;;;;;;;;;;23.70;99.90;;;;;;5003237;28;19957;-75
2022/10/05 11:57:17;;;;;;;;;;;23.90;99.90;;;;;;5001851;28;19916;-77
2022/10/05 11:59:55;;;;;;;;;;;23.90;99.90;;;;;;5002039;28;20020;-76
2022/10/05 12:02:58;;;;;;;;;;;24.20;99.90;;;;;;5002161;28;20167;-78
2022/10/05 12:05:42;;;;;;;;;;;24.50;99.90;;;;;;5002032;28;19922;-78
2022/10/05 12:08:26;;;;;;;;;;;24.50;99.90;;;;;;5002795;28;20148;-78
2022/10/05 12:11:06;;;;;;;;;;;24.30;99.90;;;;;;5002114;28;20250;-78
2022/10/05 12:14:11;;;;;;;;;;;24.30;99.90;;;;;;5002076;28;19980;-78
2022/10/05 12:16:45;;;;;;;;;;;24.40;99.90;;;;;;5005757;28;20421;-78
2022/10/05 12:19:17;;;;;;;;;;;24.70;99.90;;;;;;5002143;28;20109;-79
2022/10/05 12:21:48;;;;;;;;;;;25.10;99.90;;;;;;5002307;28;19996;-77
2022/10/05 12:24:23;;;;;;;;;;;25.30;99.90;;;;;;5006040;28;19917;-77
2022/10/05 12:27:02;;;;;;;;;;;25.50;99.90;;;;;;5005584;28;20230;-75
2022/10/05 12:29:47;;;;;;;;;;;26.00;99.90;;;;;;5005854;28;19914;-77
2022/10/05 12:32:16;;;;;;;;;;;26.70;99.90;;;;;;5005788;28;19921;-77
2022/10/05 12:35:03;;;;;;;;;;;27.30;99.90;;;;;;5005790;28;20201;-77
2022/10/05 12:38:01;;;;;;;;;;;27.20;99.90;;;;;;5005860;28;20007;-78
2022/10/05 12:40:50;;;;;;;;;;;26.60;99.90;;;;;;5015354;28;19968;-78
2022/10/05 12:43:34;;;;;;;;;;;26.60;99.90;;;;;;5006524;28;20116;-78
2022/10/05 12:46:24;;;;;;;;;;;26.60;99.90;;;;;;5009994;28;19924;-78
2022/10/05 12:49:02;;;;;;;;;;;26.80;99.90;;;;;;5012642;28;19922;-77
2022/10/05 12:51:36;;;;;;;;;;;27.00;99.60;;;;;;5011474;28;20148;-78
2022/10/05 12:54:34;;;;;;;;;;;27.00;99.90;;;;;;5007602;28;19910;-78
2022/10/05 12:57:11;;;;;;;;;;;27.20;99.90;;;;;;5006058;28;20208;-77
2022/10/05 12:59:42;;;;;;;;;;;27.40;98.30;;;;;;5006585;28;19917;-78
2022/10/05 13:02:20;;;;;;;;;;;27.30;99.10;;;;;;5006494;28;20085;-77
2022/10/05 13:04:59;;;;;;;;;;;27.40;96.30;;;;;;5005752;28;19914;-78
2022/10/05 13:07:37;;;;;;;;;;;27.40;95.20;;;;;;5005498;28;20370;-78
2022/10/05 13:10:35;;;;;;;;;;;27.30;96.10;;;;;;5005605;28;19925;-77
2022/10/05 13:13:36;;;;;;;;;;;27.30;95.50;;;;;;5005818;28;20090;-78
2022/10/05 13:16:13;;;;;;;;;;;27.10;96.10;;;;;;5021188;28;19910;-76
2022/10/05 13:19:11;;;;;;;;;;;27.20;95.90;;;;;;5004749;28;19918;-76
2022/10/05 13:21:50;;;;;;;;;;;27.20;96.40;;;;;;5020183;28;20204;-76
2022/10/05 13:24:21;;;;;;;;;;;27.60;95.20;;;;;;5005606;28;19922;-76
2022/10/05 13:26:49;;;;;;;;;;;28.00;92.00;;;;;;5004234;28;20205;-76
2022/10/05 13:29:27;;;;;;;;;;;28.30;91.00;;;;;;5004514;28;19929;-76
2022/10/05 13:31:58;;;;;;;;;;;28.40;90.10;;;;;;5005582;28;19910;-76
2022/10/05 13:34:33;;;;;;;;;;;28.60;92.60;;;;;;5004364;28;20179;-76
2022/10/05 13:37:24;;;;;;;;;;;29.00;91.50;;;;;;5005254;28;19910;-76
2022/10/05 13:39:52;;;;;;;;;;;29.30;90.10;;;;;;5004538;28;19936;-73
2022/10/05 13:42:27;;;;;;;;;;;29.60;87.30;;;;;;5005381;28;19910;-75
2022/10/05 13:45:13;;;;;;;;;;;29.80;83.30;;;;;;5004607;28;20255;-78
2022/10/05 13:47:41;;;;;;;;;;;29.70;82.00;;;;;;5006484;28;19910;-78
2022/10/05 13:50:18;;;;;;;;;;;29.00;86.80;;;;;;5004495;28;19952;-77
2022/10/05 13:52:55;;;;;;;;;;;29.10;84.30;;;;;;5004471;28;20255;-80
2022/10/05 13:55:46;;;;;;;;;;;28.80;84.40;;;;;;5003887;28;19916;-78
2022/10/05 13:58:33;;;;;;;;;;;28.50;86.00;;;;;;5003585;28;19933;-78
2022/10/05 14:01:06;;;;;;;;;;;28.00;90.10;;;;;;5005934;28;20129;-80
2022/10/05 14:03:36;;;;;;;;;;;27.80;90.30;;;;;;5005729;28;19916;-80
2022/10/05 14:06:28;;;;;;;;;;;27.40;91.10;;;;;;5005722;28;19913;-80
2022/10/05 14:08:56;;;;;;;;;;;26.90;93.50;;;;;;5001568;28;19922;-80
2022/10/05 14:11:22;;;;;;;;;;;26.70;95.40;;;;;;5006277;28;20114;-80
2022/10/05 14:13:47;;;;;;;;;;;26.50;94.90;;;;;;5007378;28;19910;-80
2022/10/05 14:16:24;;;;;;;;;;;26.20;95.80;;;;;;5005742;28;20005;-81
2022/10/05 14:19:38;;;;;;;;;;;25.80;99.20;;;;;;5006221;28;19918;-80
2022/10/05 14:22:12;;;;;;;;;;;25.60;99.90;;;;;;5005228;28;19910;-81
2022/10/05 14:24:47;;;;;;;;;;;25.50;99.90;;;;;;5006213;28;19960;-81
2022/10/05 14:27:23;;;;;;;;;;;25.50;99.90;;;;;;5005828;28;19910;-79
2022/10/05 14:30:11;;;;;;;;;;;25.30;99.90;;;;;;5006038;28;20240;-81
2022/10/05 14:32:46;;;;;;;;;;;25.20;99.90;;;;;;5008668;28;19910;-81
2022/10/05 14:35:17;;;;;;;;;;;25.00;99.90;;;;;;5022088;28;20212;-80
2022/10/05 14:37:42;;;;;;;;;;;24.90;99.90;;;;;;5005870;28;19910;-80
2022/10/05 14:40:32;;;;;;;;;;;24.40;99.90;;;;;;5006182;28;19980;-80
2022/10/05 14:43:00;;;;;;;;;;;24.30;99.90;;;;;;5006260;28;19916;-81
2022/10/05 14:45:28;;;;;;;;;;;23.90;99.90;;;;;;5004273;28;19937;-80
2022/10/05 14:48:00;;;;;;;;;;;23.60;99.90;;;;;;5005476;28;19918;-80
2022/10/05 14:50:28;;;;;;;;;;;23.30;99.90;;;;;;5006736;28;19924;-81
2022/10/05 14:53:01;;;;;;;;;;;23.00;99.90;;;;;;5004952;28;19937;-81
2022/10/05 14:55:36;;;;;;;;;;;22.80;99.90;;;;;;5004906;28;19910;-80
2022/10/05 14:58:09;;;;;;;;;;;22.70;99.90;;;;;;5003254;28;19937;-80
2022/10/05 15:00:55;;;;;;;;;;;22.60;99.90;;;;;;5004534;28;20209;-80
2022/10/05 15:04:15;;;;;;;;;;;22.40;99.90;;;;;;5004861;28;19933;-80
2022/10/05 15:06:45;;;;;;;;;;;22.30;99.90;;;;;;4983528;28;19957;-79
2022/10/05 15:09:45;;;;;;;;;;;22.10;99.90;;;;;;5004638;28;19936;-80
2022/10/05 15:12:12;;;;;;;;;;;22.10;99.90;;;;;;4998163;28;19949;-82
2022/10/05 15:14:40;;;;;;;;;;;21.90;99.90;;;;;;5005765;28;19910;-82
2022/10/05 15:17:27;;;;;;;;;;;21.80;99.90;;;;;;4988393;28;19949;-79
2022/10/05 15:20:30;;;;;;;;;;;21.70;99.90;;;;;;5003955;28;20259;-80
2022/10/05 15:23:24;;;;;;;;;;;21.50;99.90;;;;;;5004547;28;19956;-80
2022/10/05 15:25:56;;;;;;;;;;;21.40;99.90;;;;;;5004420;28;19917;-80
2022/10/05 15:28:35;;;;;;;;;;;21.30;99.90;;;;;;5003842;28;20094;-76
2022/10/05 15:31:03;;;;;;;;;;;21.20;99.90;;;;;;5003780;28;19910;-79
2022/10/05 15:33:54;;;;;;;;;;;21.10;99.90;;;;;;5004993;28;19918;-80
2022/10/05 15:36:25;;;;;;;;;;;21.00;99.90;;;;;;5007852;28;19917;-80
2022/10/05 15:39:00;;;;;;;;;;;20.90;99.90;;;;;;5004786;28;20193;-80
2022/10/05 15:41:58;;;;;;;;;;;20.80;99.90;;;;;;5021736;28;19980;-80